Nearby METAR Reports

 

K1V4 - St. Johnsbury, Vermont, USA
Distance from station: NNW 15mi, 24km
Updated: 07/26/2021 3:54pm

 
Temperature: 82°F , 28°C
Heat Index: 82°F , 28°C
Dew Point: 61°F , 16°C
Humidity: 48%
Barometer: 29.83 inHg , 1010.2 hPa
2021/07/26 19:54 K1V4 261954Z AUTO 28/16 A2983 RMK AO1 SLP091 T02780161
KHIE - Whitefield, New Hampshire, USA
Distance from station: ENE 21mi, 34km
Updated: 07/26/2021 3:52pm
Haze, Partly cloudy
Haze, Partly cloudy
 Wind from WNW
Wind: WNW 8 mph , 13 km/h
Temperature: 79°F , 26°C
Dew Point: 61°F , 16°C
Humidity: 54%
Barometer: 29.87 inHg , 1011.5 hPa
Summary: Haze
Clouds: Partly cloudy
Visibility: 3 miles , 5 km
Cloud details: Partly cloudy 4800 ft
2021/07/26 19:52 KHIE 261952Z AUTO 29007KT 3SM HZ SCT048 26/16 A2987 RMK AO2 SLP112 T02610156
KCDA - Lyndonville, Vermont, USA
Distance from station: NNW 25mi, 40km
Updated: 07/26/2021 4:35pm
Haze, Partly cloudy
Haze, Partly cloudy
 Wind from SW
Wind: SW 3 mph , 6 km/h
Temperature: 77°F , 25°C
Dew Point: 61°F , 16°C
Humidity: 57%
Barometer: 29.88 inHg , 1011.9 hPa
Summary: Haze
Clouds: Partly cloudy
Visibility: 5 miles , 8 km
Cloud details: Partly cloudy 5000 ft
Partly cloudy 8000 ft
2021/07/26 20:35 KCDA 262035Z AUTO 23003KT 5SM HZ SCT050 SCT080 25/16 A2988 RMK AO2 T02520162
 
K1P1 - Plymouth, New Hampshire, USA
Distance from station: SSE 31mi, 49km
Updated: 07/26/2021 4:35pm
Heavy rain, Partly cloudy
Heavy rain, Partly cloudy
 Wind from WNW
Wind: WNW 5 mph , 7 km/h
Temperature: 81°F , 27°C
Heat Index: 82°F , 28°C
Dew Point: 61°F , 16°C
Humidity: 51%
Barometer: 29.85 inHg , 1010.8 hPa
Summary: Heavy rain
Clouds: Partly cloudy
Visibility: 4 miles , 6 km
Cloud details: Partly cloudy 6000 ft
2021/07/26 20:35 K1P1 262035Z AUTO 29004KT 4SM +RA SCT060 27/16 A2985 RMK AO2 LTG DSNT NW T02700156
KMWN - Mount Washington, New Hampshire, USA
Distance from station: E 31mi, 49km
Updated: 07/26/2021 3:48pm
Fog, Overcast
Fog, Overcast
 Wind from W
Wind: W 30 mph , 48 km/h, Gust: 37 mph , 59 km/h
Temperature: 52°F , 11°C
Dew Point: 52°F , 11°C
Humidity: 100%
Summary: Fog
Clouds: Overcast
Visibility: 1/8 mile , 0.2 km
Cloud details: Overcast 0 ft
2021/07/26 19:48 KMWN 261948Z COR 28026G32KT 1/8SM FG VV000 11/11 RMK FG INTMT
KMPV - Montpelier/Barre, Vermont, USA
Distance from station: W 32mi, 52km
Updated: 07/26/2021 3:51pm
Haze, Clear
Haze, Clear
 Wind from WNW
Wind: WNW 9 mph , 15 km/h
Temperature: 81°F , 27°C
Heat Index: 81°F , 27°C
Dew Point: 59°F , 15°C
Humidity: 48%
Barometer: 29.92 inHg , 1013.2 hPa
Summary: Haze
Clouds: Clear
Visibility: 5 miles , 8 km
2021/07/26 19:51 KMPV 261951Z AUTO 30008KT 5SM HZ CLR 27/15 A2992 RMK AO2 SLP125 T02720150
 
KMVL - Morrisville, Vermont, USA
Distance from station: WNW 41mi, 66km
Updated: 07/26/2021 3:54pm
Haze, Mostly cloudy
Haze, Mostly cloudy
 Wind from SW
Wind: SW 6 mph , 9 km/h
Temperature: 79°F , 26°C
Dew Point: 63°F , 17°C
Humidity: 58%
Barometer: 29.85 inHg , 1010.8 hPa
Summary: Haze
Clouds: Mostly cloudy
Visibility: 4 miles , 6 km
Cloud details: Few Clouds 6000 ft
Mostly cloudy 10000 ft
2021/07/26 19:54 KMVL 261954Z AUTO 22005KT 4SM HZ FEW060 BKN100 26/17 A2985 RMK AO2 SLP106 T02610172
KBML - Berlin, New Hampshire, USA
Distance from station: NE 44mi, 71km
Updated: 07/26/2021 3:52pm
Haze, Few clouds
Haze, Few clouds
 Wind from varies
Wind: varies 5 mph , 7 km/h
Temperature: 79°F , 26°C
Dew Point: 61°F , 16°C
Humidity: 54%
Barometer: 29.86 inHg , 1011.2 hPa
Summary: Haze
Clouds: Few Clouds
Visibility: 4 miles , 6 km
Cloud details: Few Clouds 4200 ft
2021/07/26 19:52 KBML 261952Z AUTO VRB04KT 4SM HZ FEW042 26/16 A2986 RMK AO2 SLP106 T02610156
KLEB - Lebanon, New Hampshire, USA
Distance from station: SSW 44mi, 71km
Updated: 07/26/2021 3:53pm
Haze, Clear
Haze, Clear
 Wind from N
Wind: N 7 mph , 11 km/h
Temperature: 88°F , 31°C
Dew Point: 59°F , 15°C
Humidity: 38%
Barometer: 29.86 inHg , 1011.2 hPa
Summary: Haze
Clouds: Clear
Visibility: 4 miles , 6 km
2021/07/26 19:53 KLEB 261953Z 35006KT 4SM HZ CLR 31/15 A2986 RMK AO2 SLP099 T03060150
 
KEFK - Newport State, Vermont, USA
Distance from station: NNW 49mi, 79km
Updated: 07/26/2021 4:35pm
Haze, Mostly cloudy
Haze, Mostly cloudy
 Wind from SW
Wind: SW 10 mph , 17 km/h
Temperature: 79°F , 26°C
Dew Point: 59°F , 15°C
Humidity: 51%
Barometer: 29.86 inHg , 1011.2 hPa
Summary: Haze
Clouds: Mostly cloudy
Visibility: 5 miles , 8 km
Cloud details: Partly cloudy 5000 ft
Partly cloudy 6500 ft
Mostly cloudy 7000 ft
2021/07/26 20:35 KEFK 262035Z AUTO 23009KT 5SM HZ SCT050 SCT065 BKN070 26/15 A2986 RMK AO2 T02610154
KIZG - Fryeburg, Maine, USA
Distance from station: ESE 50mi, 81km
Updated: 07/26/2021 3:54pm
Haze, Clear
Haze, Clear
 Wind from NW
Wind: NW 7 mph , 11 km/h
Temperature: 82°F , 28°C
Heat Index: 82°F , 28°C
Dew Point: 57°F , 14°C
Humidity: 42%
Barometer: 29.84 inHg , 1010.5 hPa
Summary: Haze
Clouds: Clear
Visibility: 5 miles , 8 km
2021/07/26 19:54 KIZG 261954Z AUTO 31006KT 5SM HZ CLR 28/14 A2984 RMK AO2 SLP102 T02830139
KLCI - Laconia Muni, New Hampshire, USA
Distance from station: SSE 51mi, 82km
Updated: 07/26/2021 3:56pm
Haze, Partly cloudy
Haze, Partly cloudy
 Wind from W
Wind: W 6 mph , 9 km/h
Temperature: 81°F , 27°C
Heat Index: 82°F , 28°C
Dew Point: 61°F , 16°C
Humidity: 51%
Barometer: 29.86 inHg , 1011.2 hPa
Summary: Haze
Clouds: Partly cloudy
Visibility: 3 miles , 5 km
Cloud details: Partly cloudy 3800 ft
2021/07/26 19:56 KLCI 261956Z AUTO 28005KT 3SM HZ SCT038 27/16 A2986 RMK AO2 SLP109 T02720161
 
K6B0 - Middlebury, Vermont, USA
Distance from station: WSW 61mi, 98km
Updated: 07/26/2021 4:35pm
Clear
Clear
 Wind from SSE
Wind: SSE 5 mph , 7 km/h
Temperature: 81°F , 27°C
Heat Index: 83°F , 28°C
Dew Point: 66°F , 19°C
Humidity: 62%
Barometer: 29.86 inHg , 1011.2 hPa
Clouds: Clear
Visibility: 7 miles , 11 km
2021/07/26 20:35 K6B0 262035Z AUTO 16004KT 7SM CLR 27/19 A2986 RMK AO2 T02700188
KBTV - Burlington, Vermont, USA
Distance from station: WNW 63mi, 102km
Updated: 07/26/2021 3:54pm
Haze, Partly cloudy
Haze, Partly cloudy
 Wind from SW
Wind: SW 9 mph , 15 km/h
Temperature: 82°F , 28°C
Heat Index: 83°F , 28°C
Dew Point: 63°F , 17°C
Humidity: 51%
Barometer: 29.84 inHg , 1010.5 hPa
Summary: Haze
Clouds: Partly cloudy
Visibility: 5 miles , 8 km
Cloud details: Partly cloudy 6500 ft
2021/07/26 19:54 KBTV 261954Z 23008KT 5SM HZ SCT065 28/17 A2984 RMK AO2 SLP101 T02830167
KVSF - Springfield, Vermont, USA
Distance from station: SSW 67mi, 107km
Updated: 07/26/2021 3:54pm
Haze, Clear
Haze, Clear
 Wind from NW
Wind: NW 6 mph , 9 km/h
Temperature: 82°F , 28°C
Heat Index: 82°F , 28°C
Dew Point: 59°F , 15°C
Humidity: 45%
Barometer: 29.88 inHg , 1011.9 hPa
Summary: Haze
Clouds: Clear
Visibility: 4 miles , 6 km
2021/07/26 19:54 KVSF 261954Z AUTO 32005KT 4SM HZ CLR 28/15 A2988 RMK AO2 SLP114 T02830150
 
KRUT - Rutland State, Vermont, USA
Distance from station: SW 70mi, 113km
Updated: 07/26/2021 3:56pm
Haze, Few clouds
Haze, Few clouds
 Wind from WSW
Wind: WSW 5 mph , 7 km/h
Temperature: 82°F , 28°C
Heat Index: 83°F , 28°C
Dew Point: 63°F , 17°C
Humidity: 51%
Barometer: 29.88 inHg , 1011.9 hPa
Summary: Haze
Clouds: Few Clouds
Visibility: 5 miles , 8 km
Cloud details: Few Clouds 5000 ft
2021/07/26 19:56 KRUT 261956Z AUTO 24004KT 5SM HZ FEW050 28/17 A2988 RMK AO2 SLP110 T02780172 $
CWFQ - Frelighsburg, Quebec, Canada
Distance from station: NW 72mi, 116km
Updated: 07/26/2021 4:00pm

 Wind from WSW
Wind: WSW 5 mph , 7 km/h
Temperature: 79°F , 26°C
Dew Point: 63°F , 17°C
Humidity: 58%
2021/07/26 20:00 CWFQ 262000Z AUTO 25004KT 26/17 RMK AO1 SLP101 T02630168 57004
KCON - Concord, New Hampshire, USA
Distance from station: SSE 73mi, 117km
Updated: 07/26/2021 3:51pm
Haze, Clear
Haze, Clear
 Wind from NW
Wind: NW 7 mph , 11 km/h
Temperature: 84°F , 29°C
Heat Index: 84°F , 29°C
Dew Point: 61°F , 16°C
Humidity: 45%
Barometer: 29.85 inHg , 1010.8 hPa
Summary: Haze
Clouds: Clear
Visibility: 4 miles , 6 km
2021/07/26 19:51 KCON 261951Z AUTO 32006KT 4SM HZ CLR 29/16 A2985 RMK AO2 SLP106 T02890161
 
CWTT - Lac Memphremagog, Quebec, Canada
Distance from station: N 74mi, 119km
Updated: 07/26/2021 4:00pm

 Wind from W
Wind: W 14 mph , 22 km/h
Temperature: 77°F , 25°C
Dew Point: 63°F , 17°C
Humidity: 61%
2021/07/26 20:00 CWTT 262000Z AUTO 26012KT 25/17 RMK AO1 PK WND 28017/1911 T02520166
KFSO - Highgate, Vermont, USA
Distance from station: NW 77mi, 123km
Updated: 07/26/2021 4:15pm
Clear
Clear
 Wind from SW
Wind: SW 5 mph , 7 km/h
Temperature: 84°F , 29°C
Heat Index: 85°F , 29°C
Dew Point: 64°F , 18°C
Humidity: 51%
Barometer: 29.83 inHg , 1010.2 hPa
Clouds: Clear
Visibility: 7 miles , 11 km
2021/07/26 20:15 KFSO 262015Z AUTO 23004KT 7SM CLR 29/18 A2983 RMK AO2 T02860181